Time;durP1;ratioP1;P1;durP2;ratioP2;P2;SDS_P1;SDS_P2;PMS_P1;PMS_P2;Temp;Humidity;BMP_temperature;BMP_pressure;BME280_temperature;BME280_humidity;BME280_pressure;Samples;Min_cycle;Max_cycle;Signal;HPM_P1;HPM_P2
2022/03/27 00:01:23;;;;;;;;;;;;;;;23.30;37.44;101204.78;20711630;27;97049;-79
2022/03/27 00:11:29;;;;;;;;;;;;;;;23.33;37.82;101194.00;20725007;27;101305;-78
2022/03/27 00:21:30;;;;;;;;;;;;;;;23.32;38.06;101200.22;20716396;27;101232;-78
2022/03/27 00:31:35;;;;;;;;;;;;;;;23.30;38.08;101208.28;20720684;27;97122;-78
2022/03/27 00:41:36;;;;;;;;;;;;;;;23.30;37.96;101216.22;20722074;27;98334;-78
2022/03/27 00:51:36;;;;;;;;;;;;;;;23.26;37.62;101221.81;20724821;27;97408;-78
2022/03/27 01:01:38;;;;;;;;;;;;;;;23.21;37.85;101224.78;20719024;27;97749;-79
2022/03/27 01:11:39;;;;;;;;;;;;;;;23.22;37.92;101210.63;20730443;27;97307;-78
2022/03/27 01:21:42;;;;;;;;;;;;;;;23.19;37.38;101229.34;20714437;27;96947;-79
2022/03/27 01:31:43;;;;;;;;;;;;;;;23.16;37.58;101230.41;20724221;27;97328;-78
2022/03/27 01:41:44;;;;;;;;;;;;;;;23.19;37.73;101237.25;20724380;27;96990;-79
2022/03/27 01:51:45;;;;;;;;;;;;;;;23.17;38.07;101249.75;20732005;27;97619;-78
2022/03/27 02:01:45;;;;;;;;;;;;;;;23.17;37.93;101255.03;20704770;27;97321;-78
2022/03/27 02:11:45;;;;;;;;;;;;;;;23.14;38.14;101253.44;20725861;27;97568;-78
2022/03/27 02:21:47;;;;;;;;;;;;;;;23.13;38.31;101262.31;20731068;27;97075;-78
2022/03/27 02:31:47;;;;;;;;;;;;;;;23.13;38.45;101272.03;20734206;27;98814;-78
2022/03/27 02:41:48;;;;;;;;;;;;;;;23.12;38.28;101278.25;20718366;27;98504;-78
2022/03/27 02:51:49;;;;;;;;;;;;;;;23.10;37.89;101280.19;20720307;27;97548;-78
2022/03/27 03:01:50;;;;;;;;;;;;;;;23.10;37.89;101294.22;20711245;27;97561;-77
2022/03/27 03:11:50;;;;;;;;;;;;;;;23.08;38.52;101300.56;20728682;27;96984;-78
2022/03/27 03:21:51;;;;;;;;;;;;;;;23.07;38.46;101320.00;20725772;27;100584;-78
2022/03/27 03:31:51;;;;;;;;;;;;;;;23.04;38.50;101336.94;20721119;27;97614;-78
2022/03/27 03:41:52;;;;;;;;;;;;;;;23.03;38.18;101344.03;20724970;27;101027;-77
2022/03/27 03:51:56;;;;;;;;;;;;;;;23.02;38.13;101352.03;20728351;27;100767;-78
2022/03/27 04:01:57;;;;;;;;;;;;;;;23.01;38.32;101372.31;20721491;27;100569;-77
2022/03/27 04:12:01;;;;;;;;;;;;;;;23.00;38.54;101380.38;20734538;27;97953;-78
2022/03/27 04:22:02;;;;;;;;;;;;;;;22.98;38.20;101393.66;20732771;27;97617;-78
2022/03/27 04:32:02;;;;;;;;;;;;;;;22.97;38.52;101420.19;20741499;27;97080;-78
2022/03/27 04:42:03;;;;;;;;;;;;;;;22.97;38.80;101430.75;20727840;27;98051;-77
2022/03/27 04:52:04;;;;;;;;;;;;;;;22.96;38.73;101466.03;20718435;27;97697;-78
2022/03/27 05:02:05;;;;;;;;;;;;;;;22.93;38.37;101476.81;20716129;27;99189;-78
2022/03/27 05:12:06;;;;;;;;;;;;;;;22.83;38.48;101485.34;20715755;27;98146;-78
2022/03/27 05:22:07;;;;;;;;;;;;;;;22.90;38.34;101500.78;20718903;27;97917;-78
2022/03/27 05:32:08;;;;;;;;;;;;;;;22.86;38.29;101497.50;20718502;27;98042;-78
2022/03/27 05:42:08;;;;;;;;;;;;;;;22.88;38.61;101514.09;20706441;27;97207;-78
2022/03/27 05:52:14;;;;;;;;;;;;;;;22.96;39.15;101526.78;20730189;27;97606;-78
2022/03/27 06:02:15;;;;;;;;;;;;;;;22.97;38.98;101539.91;20731648;27;97004;-79
2022/03/27 06:12:15;;;;;;;;;;;;;;;23.00;39.49;101565.28;20736432;27;97120;-79
2022/03/27 06:22:17;;;;;;;;;;;;;;;23.10;40.04;101581.34;20724787;27;98657;-78
2022/03/27 06:32:17;;;;;;;;;;;;;;;23.10;40.46;101576.06;20729120;27;97144;-77
2022/03/27 06:42:18;;;;;;;;;;;;;;;23.11;40.16;101593.63;20743078;27;96916;-78
2022/03/27 06:52:19;;;;;;;;;;;;;;;23.13;39.88;101591.69;20726477;27;97813;-79
2022/03/27 07:12:39;;;;;;;;;;;;;;;23.27;40.58;101602.22;20723899;27;100089;-78
2022/03/27 07:22:40;;;;;;;;;;;;;;;23.27;40.35;101620.72;20725605;27;97594;-81
2022/03/27 07:32:40;;;;;;;;;;;;;;;23.30;40.46;101630.25;20724718;27;97082;-77
2022/03/27 07:42:46;;;;;;;;;;;;;;;23.16;38.29;101634.66;20730070;27;97173;-81
2022/03/27 07:52:47;;;;;;;;;;;;;;;23.23;38.74;101640.38;20692825;27;97029;-74
2022/03/27 08:02:47;;;;;;;;;;;;;;;23.22;38.86;101640.47;20723631;27;97268;-75
2022/03/27 08:12:51;;;;;;;;;;;;;;;23.22;39.06;101643.13;20745576;27;96963;-74
2022/03/27 08:22:52;;;;;;;;;;;;;;;23.21;39.22;101644.09;20731319;27;98250;-75
2022/03/27 08:32:52;;;;;;;;;;;;;;;23.20;39.15;101645.88;20740871;27;96965;-75
2022/03/27 08:42:53;;;;;;;;;;;;;;;23.20;39.15;101650.31;20740184;27;97045;-74
2022/03/27 08:52:58;;;;;;;;;;;;;;;23.18;39.00;101655.72;20748777;27;97898;-74
2022/03/27 09:03:00;;;;;;;;;;;;;;;23.19;38.76;101649.44;20746175;27;96836;-75
2022/03/27 09:13:01;;;;;;;;;;;;;;;23.13;38.84;101650.69;20737525;27;97032;-75
2022/03/27 09:23:10;;;;;;;;;;;;;;;23.17;38.75;101643.44;20735775;27;98416;-75
2022/03/27 09:33:10;;;;;;;;;;;;;;;23.22;38.80;101637.81;20736740;27;97279;-74
2022/03/27 09:43:11;;;;;;;;;;;;;;;23.22;39.03;101638.69;20734704;27;97686;-74
2022/03/27 09:53:22;;;;;;;;;;;;;;;23.27;39.04;101628.66;20731682;27;98271;-75
2022/03/27 10:03:25;;;;;;;;;;;;;;;23.32;38.92;101634.47;20731022;27;100993;-75
2022/03/27 10:13:28;;;;;;;;;;;;;;;23.36;38.96;101629.81;20732460;27;97095;-75
2022/03/27 10:23:30;;;;;;;;;;;;;;;23.40;38.68;101633.13;20724037;27;99201;-75
2022/03/27 10:33:31;;;;;;;;;;;;;;;23.46;38.73;101635.34;20734084;27;97268;-74
2022/03/27 10:43:53;;;;;;;;;;;;;;;23.49;38.66;101625.41;20727256;27;97342;-75
2022/03/27 10:54:08;;;;;;;;;;;;;;;23.55;38.63;101615.38;20729813;27;96993;-74
2022/03/27 11:04:08;;;;;;;;;;;;;;;23.61;38.39;101615.81;20727240;27;97484;-75
2022/03/27 11:14:09;;;;;;;;;;;;;;;23.67;38.44;101601.31;20726436;27;97367;-74
2022/03/27 11:24:09;;;;;;;;;;;;;;;23.73;38.59;101597.38;20730833;27;98047;-75
2022/03/27 11:34:14;;;;;;;;;;;;;;;23.79;38.49;101581.94;20741568;27;96938;-75
2022/03/27 11:44:24;;;;;;;;;;;;;;;23.86;38.17;101576.22;20740293;27;101606;-75
2022/03/27 11:54:24;;;;;;;;;;;;;;;23.91;38.36;101559.09;20738538;27;96850;-76
2022/03/27 12:04:25;;;;;;;;;;;;;;;23.98;38.09;101559.53;20733876;27;97529;-76
2022/03/27 12:14:25;;;;;;;;;;;;;;;24.04;38.26;101547.66;20737197;27;97035;-75
2022/03/27 12:24:39;;;;;;;;;;;;;;;24.11;38.16;101543.63;20741408;27;97206;-75
2022/03/27 12:34:41;;;;;;;;;;;;;;;24.17;37.90;101523.81;20739611;27;97374;-73
2022/03/27 12:44:50;;;;;;;;;;;;;;;24.24;37.99;101515.31;20726569;27;97608;-75
2022/03/27 12:55:05;;;;;;;;;;;;;;;24.31;37.95;101507.75;20724469;27;96945;-75
2022/03/27 13:05:06;;;;;;;;;;;;;;;24.38;37.88;101489.66;20738918;27;97526;-74
2022/03/27 13:15:06;;;;;;;;;;;;;;;24.45;37.89;101478.47;20732944;27;97051;-75
2022/03/27 13:25:07;;;;;;;;;;;;;;;24.54;37.79;101473.47;20729966;27;97164;-75
2022/03/27 13:35:08;;;;;;;;;;;;;;;24.61;37.58;101456.16;20735804;27;96918;-75
2022/03/27 13:45:08;;;;;;;;;;;;;;;24.65;37.39;101462.06;20731776;27;97179;-76
2022/03/27 13:55:09;;;;;;;;;;;;;;;24.71;37.79;101446.56;20737066;27;97137;-75
2022/03/27 14:05:10;;;;;;;;;;;;;;;24.77;37.35;101434.69;20716761;27;98085;-75
2022/03/27 14:15:11;;;;;;;;;;;;;;;24.83;38.04;101426.25;20706257;27;98597;-75
2022/03/27 14:25:12;;;;;;;;;;;;;;;24.90;38.37;101423.97;20715050;27;97420;-75
2022/03/27 14:35:13;;;;;;;;;;;;;;;24.93;38.79;101410.50;20713464;27;97352;-73
2022/03/27 14:45:14;;;;;;;;;;;;;;;24.88;35.84;101402.91;20724289;27;97756;-75
2022/03/27 15:05:34;;;;;;;;;;;;;;;24.70;24.24;101383.97;20727574;27;97053;-73
2022/03/27 15:15:36;;;;;;;;;;;;;;;24.58;24.75;101377.78;20714576;27;99027;-74
2022/03/27 15:25:37;;;;;;;;;;;;;;;24.45;24.12;101379.69;20716768;27;97420;-74
2022/03/27 15:35:37;;;;;;;;;;;;;;;24.19;23.17;101385.13;20730018;27;98156;-73
2022/03/27 15:45:38;;;;;;;;;;;;;;;24.22;23.31;101379.59;20721850;27;100933;-74
2022/03/27 15:55:38;;;;;;;;;;;;;;;24.23;23.19;101383.94;20710713;27;97051;-73
2022/03/27 16:05:39;;;;;;;;;;;;;;;24.21;24.29;101379.72;20708074;27;97510;-72
2022/03/27 16:15:40;;;;;;;;;;;;;;;24.17;25.26;101381.75;20699842;27;97397;-73
2022/03/27 16:25:41;;;;;;;;;;;;;;;23.86;24.74;101378.69;20708691;27;97515;-74
2022/03/27 16:35:42;;;;;;;;;;;;;;;23.52;24.33;101397.00;20725487;27;98896;-73
2022/03/27 16:45:43;;;;;;;;;;;;;;;23.46;24.06;101393.00;20722899;27;97572;-76
2022/03/27 16:55:44;;;;;;;;;;;;;;;23.55;26.58;101393.31;20712334;27;101258;-77
2022/03/27 17:05:45;;;;;;;;;;;;;;;23.71;27.29;101393.88;20720764;27;99346;-77
2022/03/27 17:15:46;;;;;;;;;;;;;;;23.79;28.47;101393.31;20711282;27;97310;-76
2022/03/27 17:25:46;;;;;;;;;;;;;;;23.79;29.74;101391.53;20719740;27;97984;-75
2022/03/27 17:35:47;;;;;;;;;;;;;;;23.75;30.29;101402.44;20718668;27;97551;-75
2022/03/27 17:45:47;;;;;;;;;;;;;;;23.70;30.86;101404.59;20711533;27;97765;-75
2022/03/27 17:55:48;;;;;;;;;;;;;;;23.72;32.04;101408.78;20706282;27;98805;-75
2022/03/27 18:05:49;;;;;;;;;;;;;;;23.75;33.07;101431.53;20703434;27;97398;-76
2022/03/27 18:15:49;;;;;;;;;;;;;;;23.66;34.05;101430.41;20706177;27;97733;-79
2022/03/27 18:25:50;;;;;;;;;;;;;;;23.53;34.11;101438.34;20708352;27;97828;-78
2022/03/27 18:35:52;;;;;;;;;;;;;;;23.57;33.56;101447.75;20694087;27;97289;-78
2022/03/27 18:45:52;;;;;;;;;;;;;;;23.56;33.80;101443.44;20722139;27;98049;-79
2022/03/27 18:55:54;;;;;;;;;;;;;;;23.58;33.79;101449.47;20735241;27;98729;-79
2022/03/27 19:05:54;;;;;;;;;;;;;;;23.57;34.13;101450.41;20732846;27;101910;-79
2022/03/27 19:15:55;;;;;;;;;;;;;;;23.58;34.21;101460.03;20731063;27;97250;-78
2022/03/27 19:25:57;;;;;;;;;;;;;;;23.59;34.39;101459.06;20734935;27;97409;-79
2022/03/27 19:35:57;;;;;;;;;;;;;;;23.58;34.73;101472.41;20732316;27;98964;-78
2022/03/27 19:45:58;;;;;;;;;;;;;;;23.54;34.78;101474.41;20741106;27;98852;-79
2022/03/27 19:55:58;;;;;;;;;;;;;;;23.50;34.95;101481.72;20748228;27;97584;-79
2022/03/27 20:05:59;;;;;;;;;;;;;;;23.54;34.75;101492.91;20746953;27;98034;-79
2022/03/27 20:16:02;;;;;;;;;;;;;;;23.57;34.91;101497.13;20734355;27;98061;-78
2022/03/27 20:26:02;;;;;;;;;;;;;;;23.54;35.16;101506.13;20733708;27;97700;-80
2022/03/27 20:36:03;;;;;;;;;;;;;;;23.53;35.46;101503.59;20739541;27;97462;-79
2022/03/27 20:46:04;;;;;;;;;;;;;;;23.53;35.66;101507.06;20738248;27;98065;-79
2022/03/27 20:56:05;;;;;;;;;;;;;;;23.47;35.88;101508.38;20744258;27;97000;-79
2022/03/27 21:06:06;;;;;;;;;;;;;;;23.50;35.72;101515.25;20738723;27;100860;-79
2022/03/27 21:16:06;;;;;;;;;;;;;;;23.41;35.83;101508.81;20745792;27;97855;-79
2022/03/27 21:26:07;;;;;;;;;;;;;;;23.36;36.21;101505.59;20736332;27;97524;-78
2022/03/27 21:36:07;;;;;;;;;;;;;;;23.36;36.28;101510.88;20733726;27;97746;-79
2022/03/27 21:46:08;;;;;;;;;;;;;;;23.34;36.05;101515.47;20732539;27;98136;-79
2022/03/27 21:56:11;;;;;;;;;;;;;;;23.31;36.24;101519.16;20733602;27;97071;-79
2022/03/27 22:06:11;;;;;;;;;;;;;;;23.31;36.36;101527.09;20731543;27;97012;-79
2022/03/27 22:16:12;;;;;;;;;;;;;;;23.30;36.63;101522.75;20720109;27;98416;-77
2022/03/27 22:26:14;;;;;;;;;;;;;;;23.29;36.37;101518.41;20724139;27;97171;-79
2022/03/27 22:36:16;;;;;;;;;;;;;;;23.29;36.70;101522.84;20726824;27;97723;-79
2022/03/27 22:46:17;;;;;;;;;;;;;;;23.27;36.88;101522.94;20718345;27;97752;-78
2022/03/27 22:56:17;;;;;;;;;;;;;;;23.27;36.96;101522.94;20711758;27;97370;-78
2022/03/27 23:06:19;;;;;;;;;;;;;;;23.29;37.05;101512.25;20716588;27;97657;-79
2022/03/27 23:16:20;;;;;;;;;;;;;;;23.30;36.86;101506.03;20717291;27;97310;-79
2022/03/27 23:26:20;;;;;;;;;;;;;;;23.24;37.43;101509.09;20743373;27;100731;-78
2022/03/27 23:36:21;;;;;;;;;;;;;;;23.25;37.14;101511.63;20732883;27;97451;-78
2022/03/27 23:46:22;;;;;;;;;;;;;;;23.24;37.23;101495.88;20737311;27;99630;-79
2022/03/27 23:56:25;;;;;;;;;;;;;;;23.24;37.46;101499.41;20730014;27;98768;-78
